Time;durP1;ratioP1;P1;durP2;ratioP2;P2;SDS_P1;SDS_P2;PMS_P1;PMS_P2;Temp;Humidity;BMP_temperature;BMP_pressure;BME280_temperature;BME280_humidity;BME280_pressure;Samples;Min_cycle;Max_cycle;Signal;HPM_P1;HPM_P2
2023/11/20 00:00:55;;;;;;;11.43;7.23;;;10.70;99.90;;;;;;5037408;28;21151;-62
2023/11/20 00:03:24;;;;;;;10.57;6.47;;;10.70;99.90;;;;;;5038541;28;20487;-63
2023/11/20 00:05:53;;;;;;;9.50;6.30;;;10.70;99.90;;;;;;5032004;28;20478;-63
2023/11/20 00:08:21;;;;;;;12.10;7.00;;;10.70;99.90;;;;;;5035728;28;21023;-63
2023/11/20 00:10:49;;;;;;;10.13;6.73;;;10.70;99.90;;;;;;5036614;28;20476;-63
2023/11/20 00:13:17;;;;;;;8.73;5.97;;;10.80;99.90;;;;;;5038384;28;20527;-63
2023/11/20 00:15:46;;;;;;;11.13;7.07;;;10.80;99.90;;;;;;5039058;28;20550;-63
2023/11/20 00:18:14;;;;;;;7.70;6.17;;;10.80;99.90;;;;;;5035417;28;20466;-62
2023/11/20 00:20:42;;;;;;;8.93;5.97;;;10.80;99.90;;;;;;5037459;28;20561;-63
2023/11/20 00:23:10;;;;;;;5.97;5.30;;;10.80;99.90;;;;;;5027428;28;20481;-62
2023/11/20 00:25:38;;;;;;;9.80;6.20;;;10.80;99.90;;;;;;5038418;28;20462;-62
2023/11/20 00:28:06;;;;;;;6.83;5.30;;;10.70;99.90;;;;;;5039674;28;20503;-63
2023/11/20 00:30:34;;;;;;;8.60;5.77;;;10.70;99.90;;;;;;5036976;28;20565;-63
2023/11/20 00:33:03;;;;;;;8.90;5.23;;;10.70;99.90;;;;;;5032037;28;20499;-62
2023/11/20 00:35:31;;;;;;;6.90;5.43;;;10.70;99.90;;;;;;5036527;28;20493;-63
2023/11/20 00:37:59;;;;;;;6.27;5.40;;;10.70;99.90;;;;;;5034774;28;20548;-63
2023/11/20 00:40:27;;;;;;;7.53;5.27;;;10.70;99.90;;;;;;5037420;28;20467;-63
2023/11/20 00:42:55;;;;;;;6.97;5.40;;;10.70;99.90;;;;;;5038620;28;20574;-63
2023/11/20 00:45:24;;;;;;;7.13;4.70;;;10.60;99.90;;;;;;5037332;28;20513;-63
2023/11/20 00:47:52;;;;;;;8.90;5.90;;;10.60;99.90;;;;;;5036710;28;20495;-62
2023/11/20 00:50:21;;;;;;;9.47;5.53;;;10.60;99.90;;;;;;5033285;28;20520;-63
2023/11/20 00:52:49;;;;;;;7.60;5.50;;;10.60;99.90;;;;;;5035696;28;20569;-63
2023/11/20 00:55:17;;;;;;;9.27;5.83;;;10.60;99.90;;;;;;5034764;28;21107;-63
2023/11/20 00:57:45;;;;;;;7.97;5.60;;;10.70;99.90;;;;;;5037151;28;20475;-63
2023/11/20 01:00:14;;;;;;;10.70;6.70;;;10.70;99.90;;;;;;5034072;28;20894;-63
2023/11/20 01:02:42;;;;;;;10.17;6.00;;;10.70;99.90;;;;;;5036982;28;20909;-63
2023/11/20 01:05:11;;;;;;;11.70;8.20;;;10.70;99.90;;;;;;5035690;28;20483;-63
2023/11/20 01:07:40;;;;;;;7.97;5.80;;;10.70;99.90;;;;;;5033883;28;20859;-63
2023/11/20 01:10:09;;;;;;;8.93;6.30;;;10.70;99.90;;;;;;5032325;28;20899;-63
2023/11/20 01:12:37;;;;;;;7.60;5.33;;;10.70;99.90;;;;;;5036705;28;20526;-63
2023/11/20 01:15:06;;;;;;;7.40;5.87;;;10.70;99.90;;;;;;5034701;28;20609;-63
2023/11/20 01:17:35;;;;;;;7.13;6.20;;;10.70;99.90;;;;;;5038105;28;20503;-63
2023/11/20 01:20:05;;;;;;;11.33;6.27;;;10.70;99.90;;;;;;5033474;28;20478;-63
2023/11/20 01:22:33;;;;;;;7.00;6.10;;;10.70;99.90;;;;;;5032518;28;20938;-63
2023/11/20 01:25:03;;;;;;;7.97;5.50;;;10.70;99.90;;;;;;5033528;28;20935;-63
2023/11/20 01:27:31;;;;;;;6.63;5.27;;;10.70;99.90;;;;;;5037398;28;20479;-63
2023/11/20 01:30:00;;;;;;;8.73;5.40;;;10.70;99.90;;;;;;5037429;28;20499;-63
2023/11/20 01:32:28;;;;;;;6.80;5.40;;;10.70;99.90;;;;;;5028070;28;20495;-62
2023/11/20 01:34:57;;;;;;;6.87;4.20;;;10.70;99.90;;;;;;5034069;28;20490;-63
2023/11/20 01:37:25;;;;;;;5.73;4.80;;;10.70;99.90;;;;;;5038804;28;20470;-63
2023/11/20 01:39:53;;;;;;;7.77;4.80;;;10.70;99.90;;;;;;5033299;28;20466;-63
2023/11/20 01:42:23;;;;;;;11.07;5.17;;;10.70;99.90;;;;;;5035334;28;20532;-63
2023/11/20 01:44:50;;;;;;;5.43;4.37;;;10.70;99.90;;;;;;5032619;28;20558;-63
2023/11/20 01:47:18;;;;;;;4.87;4.37;;;10.70;99.90;;;;;;5034277;28;20477;-63
2023/11/20 01:49:46;;;;;;;7.33;4.83;;;10.70;99.90;;;;;;5034936;28;20470;-63
2023/11/20 01:52:14;;;;;;;10.17;5.30;;;10.70;99.90;;;;;;5029005;28;20508;-63
2023/11/20 01:54:43;;;;;;;5.00;4.10;;;10.70;99.90;;;;;;5034234;28;20486;-63
2023/11/20 01:57:11;;;;;;;4.97;4.43;;;10.70;99.90;;;;;;5033605;28;20557;-63
2023/11/20 01:59:41;;;;;;;6.20;4.60;;;10.70;99.90;;;;;;5037747;28;20482;-63
2023/11/20 02:02:10;;;;;;;6.77;4.57;;;10.70;99.90;;;;;;5033190;28;20533;-63
2023/11/20 02:04:40;;;;;;;6.30;5.00;;;10.70;99.90;;;;;;5033902;28;20634;-63
2023/11/20 02:07:08;;;;;;;5.50;4.57;;;10.70;99.90;;;;;;5034400;28;20913;-63
2023/11/20 02:09:36;;;;;;;5.23;4.73;;;10.70;99.90;;;;;;5035686;28;20486;-63
2023/11/20 02:12:06;;;;;;;6.93;4.57;;;10.70;99.90;;;;;;5030251;28;21127;-63
2023/11/20 02:14:34;;;;;;;4.93;4.33;;;10.70;99.90;;;;;;5031967;28;20521;-63
2023/11/20 02:17:04;;;;;;;5.40;4.70;;;10.70;99.90;;;;;;5035652;28;20498;-63
2023/11/20 02:19:32;;;;;;;5.47;4.33;;;10.70;99.90;;;;;;5036487;28;20485;-63
2023/11/20 02:22:00;;;;;;;5.43;4.73;;;10.70;99.90;;;;;;5034433;28;20474;-63
2023/11/20 02:24:28;;;;;;;7.60;5.20;;;10.70;99.90;;;;;;5034250;28;20899;-63
2023/11/20 02:27:16;;;;;;;7.10;4.37;;;10.70;99.90;;;;;;5036080;28;20554;-63
2023/11/20 02:29:53;;;;;;;7.00;5.10;;;10.70;99.90;;;;;;5035470;28;21009;-63
2023/11/20 02:32:21;;;;;;;7.97;4.77;;;10.70;99.90;;;;;;5034940;28;20544;-63
2023/11/20 02:34:51;;;;;;;5.13;4.33;;;10.70;99.90;;;;;;5033583;28;20493;-63
2023/11/20 02:37:19;;;;;;;5.93;4.87;;;10.70;99.90;;;;;;5034241;28;20751;-63
2023/11/20 02:39:49;;;;;;;4.80;4.20;;;10.60;99.90;;;;;;5033393;28;20480;-62
2023/11/20 02:42:17;;;;;;;6.57;4.67;;;10.70;99.90;;;;;;5029808;28;20505;-63
2023/11/20 02:44:46;;;;;;;7.13;5.17;;;10.70;99.90;;;;;;5030213;28;20482;-62
2023/11/20 02:47:16;;;;;;;8.33;5.30;;;10.60;99.90;;;;;;5032905;28;20561;-63
2023/11/20 02:49:44;;;;;;;9.93;5.60;;;10.70;99.90;;;;;;5037363;28;20482;-63
2023/11/20 02:52:12;;;;;;;6.97;5.00;;;10.60;99.90;;;;;;5033350;28;20498;-63
2023/11/20 02:54:40;;;;;;;7.10;5.73;;;10.60;99.90;;;;;;5031252;28;20486;-63
2023/11/20 02:57:09;;;;;;;5.10;4.53;;;10.60;99.90;;;;;;5036263;28;20479;-63
2023/11/20 02:59:37;;;;;;;6.63;4.77;;;10.60;99.90;;;;;;5038958;28;20992;-63
2023/11/20 03:02:05;;;;;;;6.30;4.90;;;10.60;99.90;;;;;;5040420;28;20545;-63
2023/11/20 03:04:35;;;;;;;7.57;5.37;;;10.60;99.90;;;;;;5037751;28;20540;-63
2023/11/20 03:07:03;;;;;;;5.87;5.03;;;10.70;99.90;;;;;;5037403;28;20580;-63
2023/11/20 03:09:31;;;;;;;9.07;5.73;;;10.70;99.90;;;;;;5034122;28;20474;-63
2023/11/20 03:11:59;;;;;;;6.27;5.43;;;10.70;99.90;;;;;;5038489;28;20474;-63
2023/11/20 03:14:27;;;;;;;6.80;5.57;;;10.70;99.90;;;;;;5037704;28;20519;-63
2023/11/20 03:16:55;;;;;;;6.23;5.60;;;10.60;99.90;;;;;;5032779;28;20491;-63
2023/11/20 03:19:23;;;;;;;7.07;5.40;;;10.60;99.90;;;;;;5041463;28;20510;-63
2023/11/20 03:21:52;;;;;;;8.10;5.43;;;10.60;99.90;;;;;;5035840;28;20470;-63
2023/11/20 03:24:20;;;;;;;6.33;5.50;;;10.60;99.90;;;;;;5034117;28;21096;-63
2023/11/20 03:26:49;;;;;;;7.40;5.30;;;10.70;99.90;;;;;;5039688;28;20476;-63
2023/11/20 03:29:17;;;;;;;8.20;5.70;;;10.60;99.90;;;;;;5040802;28;21517;-63
2023/11/20 03:31:45;;;;;;;6.60;5.37;;;10.60;99.90;;;;;;5040343;28;20500;-63
2023/11/20 03:34:13;;;;;;;8.23;6.00;;;10.70;99.90;;;;;;5037611;28;20497;-63
2023/11/20 03:36:41;;;;;;;7.00;5.90;;;10.60;99.90;;;;;;5038437;28;20846;-63
2023/11/20 03:39:11;;;;;;;7.00;5.83;;;10.60;99.90;;;;;;5039148;28;21007;-63
2023/11/20 03:41:38;;;;;;;8.60;6.03;;;10.60;99.90;;;;;;5038949;28;20562;-63
2023/11/20 03:44:07;;;;;;;9.63;6.97;;;10.60;99.90;;;;;;5037052;28;20478;-63
2023/11/20 03:46:34;;;;;;;9.13;6.83;;;10.60;99.90;;;;;;5035497;28;21047;-63
2023/11/20 03:49:03;;;;;;;9.80;6.50;;;10.60;99.90;;;;;;5038213;28;20503;-63
2023/11/20 03:51:31;;;;;;;8.70;6.30;;;10.60;99.90;;;;;;5037708;28;20846;-63
2023/11/20 03:53:58;;;;;;;8.90;7.03;;;10.60;99.90;;;;;;5029662;28;20483;-63
2023/11/20 03:56:28;;;;;;;7.80;7.00;;;10.60;99.90;;;;;;5034342;28;20526;-63
2023/11/20 03:58:56;;;;;;;11.27;7.40;;;10.60;99.90;;;;;;5036423;28;20927;-63
2023/11/20 04:01:24;;;;;;;10.20;6.80;;;10.60;99.90;;;;;;5037943;28;20471;-63
2023/11/20 04:03:52;;;;;;;9.40;7.30;;;10.60;99.90;;;;;;5035941;28;20497;-63
2023/11/20 04:06:20;;;;;;;10.03;7.70;;;10.60;99.90;;;;;;5036767;28;20569;-63
2023/11/20 04:08:48;;;;;;;11.93;7.63;;;10.50;99.90;;;;;;5036738;28;20470;-63
2023/11/20 04:11:16;;;;;;;8.37;6.13;;;10.50;99.90;;;;;;5038293;28;20499;-63
2023/11/20 04:13:45;;;;;;;8.47;6.50;;;10.40;99.90;;;;;;5034841;28;21026;-63
2023/11/20 04:16:14;;;;;;;6.77;6.07;;;10.40;99.90;;;;;;5034792;28;20578;-63
2023/11/20 04:18:44;;;;;;;7.70;6.40;;;10.30;99.90;;;;;;5035853;28;20467;-63
2023/11/20 04:21:13;;;;;;;7.90;5.93;;;10.20;99.90;;;;;;5033981;28;20555;-63
2023/11/20 04:23:41;;;;;;;8.50;6.50;;;10.20;99.90;;;;;;5035951;28;20569;-63
2023/11/20 04:26:09;;;;;;;8.63;6.50;;;10.20;99.90;;;;;;5036428;28;20856;-63
2023/11/20 04:28:37;;;;;;;7.60;6.23;;;10.10;99.90;;;;;;5035559;28;20558;-63
2023/11/20 04:31:07;;;;;;;10.67;6.60;;;10.10;99.90;;;;;;5036172;28;20844;-63
2023/11/20 04:33:35;;;;;;;8.30;6.63;;;10.10;99.90;;;;;;5034764;28;20493;-62
2023/11/20 04:36:03;;;;;;;7.37;6.37;;;10.10;99.90;;;;;;5035550;28;20501;-63
2023/11/20 04:38:32;;;;;;;8.47;6.90;;;10.10;99.90;;;;;;5035258;28;21096;-63
2023/11/20 04:41:00;;;;;;;8.30;6.63;;;10.10;99.90;;;;;;5037714;28;21307;-63
2023/11/20 04:43:28;;;;;;;7.37;6.30;;;10.10;99.90;;;;;;5030751;28;20540;-63
2023/11/20 04:45:56;;;;;;;8.97;6.90;;;10.10;99.90;;;;;;5035649;28;20472;-63
2023/11/20 04:48:26;;;;;;;9.43;6.90;;;10.10;99.90;;;;;;5037556;28;21045;-63
2023/11/20 04:50:54;;;;;;;8.23;6.83;;;10.00;99.90;;;;;;5037113;28;20470;-63
2023/11/20 04:53:24;;;;;;;8.10;6.40;;;10.10;99.90;;;;;;5036524;28;20525;-63
2023/11/20 04:55:52;;;;;;;8.10;6.80;;;10.10;99.90;;;;;;5034759;28;20494;-63
2023/11/20 04:58:21;;;;;;;8.93;7.30;;;10.10;99.90;;;;;;5037223;28;20574;-63
2023/11/20 05:00:50;;;;;;;7.17;6.47;;;10.10;99.90;;;;;;5035583;28;20479;-63
2023/11/20 05:03:19;;;;;;;8.67;6.53;;;10.10;99.90;;;;;;5037563;28;21019;-63
2023/11/20 05:05:49;;;;;;;9.50;6.97;;;10.10;99.90;;;;;;5033855;28;20464;-63
2023/11/20 05:08:17;;;;;;;9.63;7.47;;;10.10;99.90;;;;;;5037861;28;20561;-63
2023/11/20 05:10:46;;;;;;;8.20;7.40;;;10.00;99.90;;;;;;5034051;28;20468;-63
2023/11/20 05:13:16;;;;;;;9.47;7.40;;;10.10;99.90;;;;;;5036556;28;20573;-63
2023/11/20 05:15:45;;;;;;;7.87;6.93;;;10.00;99.90;;;;;;5036341;28;20494;-63
2023/11/20 05:18:15;;;;;;;9.60;7.03;;;10.00;99.90;;;;;;5036194;28;20545;-63
2023/11/20 05:20:43;;;;;;;11.00;7.43;;;10.10;99.90;;;;;;5036925;28;20468;-63
2023/11/20 05:23:12;;;;;;;9.03;7.30;;;10.10;99.90;;;;;;5037542;28;20574;-62
2023/11/20 05:25:40;;;;;;;8.87;6.67;;;10.10;99.90;;;;;;5033034;28;20566;-63
2023/11/20 05:28:09;;;;;;;7.07;6.30;;;10.10;99.90;;;;;;5035805;28;20977;-61
2023/11/20 05:30:38;;;;;;;9.00;6.97;;;10.10;99.90;;;;;;5037741;28;21016;-63
2023/11/20 05:33:06;;;;;;;9.77;7.23;;;10.10;99.90;;;;;;5034738;28;20530;-62
2023/11/20 05:35:34;;;;;;;10.60;7.70;;;10.10;99.90;;;;;;5034762;28;20490;-63
2023/11/20 05:38:02;;;;;;;9.20;7.43;;;10.10;99.90;;;;;;5034000;28;20521;-62
2023/11/20 05:40:32;;;;;;;9.60;7.20;;;10.10;99.90;;;;;;5031243;28;20463;-63
2023/11/20 05:43:00;;;;;;;8.00;7.17;;;10.10;99.90;;;;;;5031231;28;20518;-63
2023/11/20 05:45:28;;;;;;;10.50;6.93;;;10.10;99.90;;;;;;5031001;28;20518;-62
2023/11/20 05:47:56;;;;;;;9.90;7.00;;;10.10;99.90;;;;;;5034361;28;20474;-63
2023/11/20 05:50:24;;;;;;;8.77;7.20;;;10.10;99.90;;;;;;5035719;28;20553;-62
2023/11/20 05:52:52;;;;;;;9.80;7.20;;;10.10;99.90;;;;;;5036137;28;20613;-62
2023/11/20 05:55:20;;;;;;;11.13;8.07;;;10.10;99.90;;;;;;5031261;28;20504;-62
2023/11/20 05:57:52;;;;;;;10.77;7.23;;;10.10;99.90;;;;;;5028651;28;20555;-62
2023/11/20 06:00:20;;;;;;;10.10;7.60;;;10.10;99.90;;;;;;5043098;28;20567;-61
2023/11/20 06:02:48;;;;;;;10.80;8.57;;;10.10;99.90;;;;;;5043522;28;20510;-62
2023/11/20 06:05:16;;;;;;;8.43;7.53;;;10.10;99.90;;;;;;5031318;28;21039;-62
2023/11/20 06:07:44;;;;;;;9.47;7.50;;;10.10;99.90;;;;;;5033397;28;20463;-62
2023/11/20 06:10:12;;;;;;;8.93;7.10;;;10.10;99.90;;;;;;5030563;28;20504;-62
2023/11/20 06:12:40;;;;;;;8.70;7.60;;;10.10;99.90;;;;;;5035629;28;20494;-62
2023/11/20 06:15:10;;;;;;;10.70;7.53;;;10.10;99.90;;;;;;5027066;28;20861;-62
2023/11/20 06:17:38;;;;;;;12.93;8.37;;;10.10;99.90;;;;;;5027120;28;20497;-61
2023/11/20 06:20:09;;;;;;;11.43;7.50;;;10.10;99.90;;;;;;5016632;28;20549;-61
2023/11/20 06:22:37;;;;;;;9.73;8.17;;;10.10;99.90;;;;;;5022689;28;20592;-63
2023/11/20 06:25:06;;;;;;;9.73;7.70;;;10.10;99.90;;;;;;5025795;28;20514;-62
2023/11/20 06:27:34;;;;;;;11.13;7.80;;;10.10;99.90;;;;;;5018017;28;20474;-62
2023/11/20 06:30:03;;;;;;;10.03;7.20;;;10.10;99.90;;;;;;5033326;28;20482;-62
2023/11/20 06:32:32;;;;;;;9.37;6.90;;;10.00;99.90;;;;;;5029501;28;20668;-62
2023/11/20 06:35:00;;;;;;;13.30;8.33;;;10.00;99.90;;;;;;5032827;28;21089;-62
2023/11/20 06:37:28;;;;;;;12.33;9.27;;;10.00;99.90;;;;;;5045230;28;20561;-61
2023/11/20 06:39:56;;;;;;;11.60;7.67;;;10.00;99.90;;;;;;5045639;28;20463;-62
2023/11/20 06:42:24;;;;;;;14.60;9.20;;;10.00;99.90;;;;;;5012231;28;20522;-63
2023/11/20 06:44:54;;;;;;;10.93;8.00;;;10.00;99.90;;;;;;5026355;28;20526;-62
2023/11/20 06:47:22;;;;;;;11.90;8.40;;;10.00;99.90;;;;;;5033761;28;20498;-61
2023/11/20 06:49:52;;;;;;;10.00;7.70;;;10.00;99.90;;;;;;5030492;28;20556;-62
2023/11/20 06:52:20;;;;;;;11.77;8.53;;;10.00;99.90;;;;;;5033242;28;20636;-62
2023/11/20 06:54:48;;;;;;;11.33;8.23;;;10.10;99.90;;;;;;5028874;28;20482;-59
2023/11/20 06:57:16;;;;;;;10.50;7.87;;;10.00;99.90;;;;;;5026906;28;20516;-62
2023/11/20 06:59:45;;;;;;;11.60;8.40;;;10.00;99.90;;;;;;5030376;28;20572;-62
2023/11/20 07:02:14;;;;;;;11.10;9.20;;;10.00;99.90;;;;;;5019997;28;20473;-62
2023/11/20 07:04:45;;;;;;;12.60;9.40;;;10.10;99.90;;;;;;5032707;28;20482;-62
2023/11/20 07:07:15;;;;;;;10.63;9.30;;;10.10;99.90;;;;;;5031586;28;21265;-62
2023/11/20 07:09:44;;;;;;;13.50;9.30;;;10.10;99.90;;;;;;5036218;28;20493;-62
2023/11/20 07:12:12;;;;;;;11.83;8.80;;;10.10;99.90;;;;;;5027662;28;20540;-61
2023/11/20 07:14:40;;;;;;;13.00;8.70;;;10.10;99.90;;;;;;5034122;28;20953;-62
2023/11/20 07:17:08;;;;;;;12.10;9.00;;;10.10;99.90;;;;;;5023825;28;20494;-63
2023/11/20 07:19:36;;;;;;;11.40;8.90;;;10.10;99.90;;;;;;5029364;28;20846;-62
2023/11/20 07:22:04;;;;;;;12.23;8.93;;;10.10;99.90;;;;;;5027469;28;20574;-62
2023/11/20 07:24:34;;;;;;;12.63;9.30;;;10.10;99.90;;;;;;5027760;28;20532;-59
2023/11/20 07:27:02;;;;;;;13.03;8.80;;;10.20;99.90;;;;;;5027793;28;20477;-60
2023/11/20 07:29:30;;;;;;;12.27;8.47;;;10.20;99.90;;;;;;5031539;28;20466;-59
2023/11/20 07:31:59;;;;;;;12.90;9.50;;;10.20;99.90;;;;;;5027629;28;20471;-59
2023/11/20 07:34:27;;;;;;;14.80;10.50;;;10.20;99.90;;;;;;5021954;28;20490;-60
2023/11/20 07:36:55;;;;;;;18.77;10.87;;;10.20;99.90;;;;;;5024911;28;20505;-59
2023/11/20 07:39:25;;;;;;;18.50;11.53;;;10.20;99.90;;;;;;5018715;28;20616;-59
2023/11/20 07:41:54;;;;;;;15.57;11.47;;;10.20;99.90;;;;;;5017875;28;20691;-60
2023/11/20 07:44:22;;;;;;;13.93;10.37;;;10.20;99.90;;;;;;5023330;28;20487;-59
2023/11/20 07:46:50;;;;;;;14.13;10.97;;;10.20;99.90;;;;;;5027908;28;20550;-59
2023/11/20 07:49:19;;;;;;;17.37;10.93;;;10.20;99.90;;;;;;5028887;28;20476;-59
2023/11/20 07:51:47;;;;;;;18.07;11.00;;;10.20;99.90;;;;;;5030703;28;20999;-59
2023/11/20 07:54:15;;;;;;;15.57;10.73;;;10.20;99.90;;;;;;5023903;28;20889;-59
2023/11/20 07:56:43;;;;;;;17.50;11.17;;;10.20;99.90;;;;;;5026555;28;20589;-59
2023/11/20 07:59:12;;;;;;;16.60;11.80;;;10.30;99.90;;;;;;5028656;28;20479;-59
2023/11/20 08:01:40;;;;;;;15.80;11.30;;;10.30;99.90;;;;;;5024413;28;21069;-59
2023/11/20 08:04:11;;;;;;;17.63;12.47;;;10.30;99.90;;;;;;5027550;28;20598;-59
2023/11/20 08:06:39;;;;;;;16.50;11.33;;;10.30;99.90;;;;;;5028718;28;20482;-59
2023/11/20 08:09:09;;;;;;;14.43;10.17;;;10.30;99.90;;;;;;5028605;28;20540;-58
2023/11/20 08:11:37;;;;;;;17.70;12.47;;;10.30;99.90;;;;;;5027892;28;20471;-59
2023/11/20 08:14:05;;;;;;;17.13;11.13;;;10.30;99.90;;;;;;5021684;28;20491;-59
2023/11/20 08:16:34;;;;;;;16.70;11.43;;;10.30;99.90;;;;;;5025943;28;20493;-60
2023/11/20 08:19:03;;;;;;;18.40;12.27;;;10.40;99.90;;;;;;5029054;28;20894;-59
2023/11/20 08:21:32;;;;;;;16.10;11.47;;;10.40;99.90;;;;;;5022429;28;21253;-59
2023/11/20 08:24:00;;;;;;;18.87;12.33;;;10.40;99.90;;;;;;5019256;28;20586;-58
2023/11/20 08:26:28;;;;;;;18.70;11.60;;;10.40;99.90;;;;;;5021437;28;20475;-62
2023/11/20 08:28:56;;;;;;;18.10;13.17;;;10.40;99.90;;;;;;5022173;28;20642;-61
2023/11/20 08:31:24;;;;;;;18.47;12.50;;;10.50;99.90;;;;;;5019071;28;20472;-59
2023/11/20 08:33:54;;;;;;;19.63;12.03;;;10.50;99.90;;;;;;5022935;28;20501;-59
2023/11/20 08:36:22;;;;;;;19.57;13.60;;;10.50;99.90;;;;;;5027378;28;20578;-60
2023/11/20 08:38:51;;;;;;;16.37;11.13;;;10.50;99.90;;;;;;5022433;28;20577;-60
2023/11/20 08:41:19;;;;;;;18.03;11.97;;;10.50;99.90;;;;;;5023225;28;20554;-58
2023/11/20 08:43:47;;;;;;;18.33;11.90;;;10.50;99.90;;;;;;5018756;28;21147;-60
2023/11/20 08:46:15;;;;;;;18.57;12.00;;;10.50;99.90;;;;;;5025199;28;20463;-60
2023/11/20 08:48:43;;;;;;;16.70;12.17;;;10.50;99.90;;;;;;5025460;28;21846;-60
2023/11/20 08:51:13;;;;;;;18.33;12.77;;;10.60;99.90;;;;;;5029387;28;20562;-59
2023/11/20 08:53:41;;;;;;;16.37;12.43;;;10.60;99.90;;;;;;5030558;28;20565;-60
2023/11/20 08:56:09;;;;;;;20.80;13.27;;;10.60;99.90;;;;;;5026821;28;20481;-60
2023/11/20 08:58:37;;;;;;;19.80;12.03;;;10.60;99.90;;;;;;5021683;28;20604;-60
2023/11/20 09:01:05;;;;;;;20.07;12.47;;;10.60;99.90;;;;;;5028952;28;20557;-60
2023/11/20 09:03:33;;;;;;;18.73;12.80;;;10.70;99.90;;;;;;5023148;28;20498;-59
2023/11/20 09:06:01;;;;;;;22.80;14.80;;;10.70;99.90;;;;;;5024886;28;20475;-60
2023/11/20 09:08:32;;;;;;;25.50;16.17;;;10.70;99.90;;;;;;5024890;28;20478;-60
2023/11/20 09:11:00;;;;;;;25.53;15.50;;;10.70;99.90;;;;;;5019858;28;20475;-59
2023/11/20 09:13:28;;;;;;;24.27;15.10;;;10.80;99.90;;;;;;5022263;28;20496;-60
2023/11/20 09:15:56;;;;;;;25.20;14.57;;;10.80;99.90;;;;;;5027069;28;20471;-60
2023/11/20 09:18:25;;;;;;;25.97;15.27;;;10.80;99.90;;;;;;5026385;28;20504;-59
2023/11/20 09:20:53;;;;;;;25.10;15.47;;;10.80;99.90;;;;;;5023651;28;20470;-60
2023/11/20 09:23:21;;;;;;;25.40;15.57;;;10.80;99.90;;;;;;5018526;28;20494;-60
2023/11/20 09:25:50;;;;;;;23.60;14.90;;;10.80;99.90;;;;;;5020985;28;20581;-59
2023/11/20 09:28:18;;;;;;;27.07;15.87;;;10.80;99.90;;;;;;5029048;28;20481;-60
2023/11/20 09:30:47;;;;;;;29.50;17.30;;;10.80;99.90;;;;;;5021880;28;20495;-60
2023/11/20 09:33:15;;;;;;;22.20;14.50;;;10.80;99.90;;;;;;5027383;28;21846;-60
2023/11/20 09:35:43;;;;;;;22.17;14.23;;;10.80;99.90;;;;;;5020707;28;20467;-60
2023/11/20 09:38:11;;;;;;;21.27;13.83;;;10.80;99.90;;;;;;5025879;28;20494;-59
2023/11/20 09:40:42;;;;;;;25.33;13.60;;;10.80;99.90;;;;;;5033284;28;20507;-59
2023/11/20 09:43:12;;;;;;;24.20;15.30;;;10.90;99.90;;;;;;5027267;28;20513;-59
2023/11/20 09:45:41;;;;;;;22.87;14.30;;;10.90;99.90;;;;;;5027851;28;20474;-60
2023/11/20 09:48:21;;;;;;;21.53;13.80;;;10.90;99.90;;;;;;5029150;28;20467;-60
2023/11/20 09:50:51;;;;;;;22.33;14.67;;;11.00;99.90;;;;;;5028607;28;20505;-60
2023/11/20 09:53:39;;;;;;;22.80;14.63;;;11.00;99.90;;;;;;5026335;28;20577;-60
2023/11/20 09:56:09;;;;;;;24.90;15.20;;;11.00;99.90;;;;;;5028593;28;20471;-60
2023/11/20 09:58:42;;;;;;;24.60;15.60;;;11.00;99.90;;;;;;5031867;28;21064;-60
2023/11/20 10:01:13;;;;;;;24.27;15.17;;;11.00;99.90;;;;;;5025818;28;20463;-59
2023/11/20 10:03:43;;;;;;;23.10;14.83;;;11.00;99.90;;;;;;5029140;28;20490;-59
2023/11/20 10:06:15;;;;;;;25.40;14.97;;;11.10;99.90;;;;;;5030239;28;20539;-59
2023/11/20 10:08:43;;;;;;;25.97;14.63;;;11.10;99.90;;;;;;5031340;28;20475;-59
2023/11/20 10:11:15;;;;;;;23.20;15.10;;;11.00;99.90;;;;;;5034289;28;24122;-59
2023/11/20 10:13:45;;;;;;;21.70;13.73;;;11.00;99.90;;;;;;5030408;28;20485;-59
2023/11/20 10:16:17;;;;;;;23.20;13.73;;;11.00;99.90;;;;;;5028871;28;20563;-59
2023/11/20 10:18:46;;;;;;;20.63;14.60;;;11.10;99.90;;;;;;5036511;28;20493;-59
2023/11/20 10:21:14;;;;;;;23.57;15.80;;;11.10;99.90;;;;;;5032377;28;20466;-59
2023/11/20 10:23:42;;;;;;;23.30;16.23;;;11.10;99.90;;;;;;5031949;28;20486;-60
2023/11/20 10:26:11;;;;;;;24.73;15.13;;;11.10;99.90;;;;;;5034142;28;20510;-59
2023/11/20 10:28:40;;;;;;;24.60;14.33;;;11.10;99.90;;;;;;5036646;28;20462;-59
2023/11/20 10:31:10;;;;;;;20.83;14.23;;;11.10;99.90;;;;;;5026574;28;20563;-59
2023/11/20 10:33:38;;;;;;;23.97;14.07;;;11.10;99.90;;;;;;5036359;27;21105;-60
2023/11/20 10:36:12;;;;;;;23.07;14.47;;;11.10;99.90;;;;;;5040916;28;20475;-59
2023/11/20 10:38:40;;;;;;;24.53;15.30;;;11.20;99.90;;;;;;5037611;28;20493;-60
2023/11/20 10:41:10;;;;;;;21.13;14.37;;;11.20;99.90;;;;;;5038384;28;20592;-59
2023/11/20 10:43:40;;;;;;;22.90;14.10;;;11.20;99.90;;;;;;5040413;28;20475;-59
2023/11/20 10:46:09;;;;;;;25.23;14.77;;;11.20;99.90;;;;;;5035566;28;20498;-59
2023/11/20 10:48:39;;;;;;;21.00;12.37;;;11.20;99.90;;;;;;5035071;28;21177;-59
2023/11/20 10:51:09;;;;;;;22.47;12.60;;;11.20;99.90;;;;;;5031099;28;20466;-60
2023/11/20 10:53:39;;;;;;;20.20;12.93;;;11.20;99.90;;;;;;5033457;28;20488;-59
2023/11/20 10:56:08;;;;;;;18.03;12.27;;;11.30;99.90;;;;;;5035622;28;20470;-60
2023/11/20 10:58:40;;;;;;;19.20;12.00;;;11.30;99.90;;;;;;5032447;28;21059;-60
2023/11/20 11:01:09;;;;;;;17.33;11.70;;;11.30;99.90;;;;;;5027478;28;20474;-59
2023/11/20 11:03:40;;;;;;;16.50;12.07;;;11.30;99.90;;;;;;5030339;28;20506;-60
2023/11/20 11:06:10;;;;;;;17.67;11.10;;;11.30;99.90;;;;;;5031835;28;20471;-59
2023/11/20 11:08:44;;;;;;;17.50;11.00;;;11.30;99.90;;;;;;5035368;28;20466;-60
2023/11/20 11:11:14;;;;;;;18.53;11.90;;;11.30;99.90;;;;;;5035375;28;20560;-58
2023/11/20 11:13:43;;;;;;;17.47;10.63;;;11.30;99.90;;;;;;5032026;28;20582;-59
2023/11/20 11:16:22;;;;;;;18.40;11.03;;;11.30;99.90;;;;;;5033426;28;20905;-59
2023/11/20 11:19:00;;;;;;;14.10;10.47;;;11.30;99.90;;;;;;5030406;28;20482;-60
2023/11/20 11:21:33;;;;;;;18.37;11.27;;;11.30;99.90;;;;;;5030011;28;21004;-60
2023/11/20 11:24:05;;;;;;;18.13;10.57;;;11.30;99.90;;;;;;5033061;28;20492;-60
2023/11/20 11:26:42;;;;;;;15.23;10.57;;;11.30;99.90;;;;;;5020734;28;20557;-59
2023/11/20 11:29:16;;;;;;;14.80;10.00;;;11.30;99.90;;;;;;5035711;28;20593;-59
2023/11/20 11:32:04;;;;;;;16.30;11.63;;;11.30;99.90;;;;;;5028578;28;20554;-59
2023/11/20 11:34:45;;;;;;;17.60;11.10;;;11.30;99.90;;;;;;5031696;28;20494;-60
2023/11/20 11:37:29;;;;;;;18.63;10.90;;;11.30;99.90;;;;;;5032655;28;20466;-60
2023/11/20 11:40:09;;;;;;;18.10;10.60;;;11.30;99.90;;;;;;5030615;28;20499;-62
2023/11/20 11:42:45;;;;;;;19.63;12.93;;;11.30;99.90;;;;;;5032939;28;20486;-60
2023/11/20 11:45:16;;;;;;;18.90;11.50;;;11.30;99.90;;;;;;5029614;28;20631;-59
2023/11/20 11:47:47;;;;;;;18.60;11.30;;;11.30;99.90;;;;;;5031377;28;20499;-60
2023/11/20 11:50:17;;;;;;;19.30;12.07;;;11.30;99.90;;;;;;5030370;28;20565;-59
2023/11/20 11:52:48;;;;;;;20.50;11.83;;;11.30;99.90;;;;;;5028851;28;21011;-59
2023/11/20 11:55:24;;;;;;;20.80;12.17;;;11.30;99.90;;;;;;5025725;28;20565;-59
2023/11/20 11:57:58;;;;;;;19.00;11.67;;;11.30;99.90;;;;;;5031574;28;20470;-59
2023/11/20 12:00:27;;;;;;;16.40;10.70;;;11.30;99.90;;;;;;5028574;28;21219;-59
2023/11/20 12:03:00;;;;;;;20.50;11.70;;;11.30;99.90;;;;;;5026009;28;20499;-60
2023/11/20 12:05:30;;;;;;;18.53;11.10;;;11.30;99.90;;;;;;5029491;28;20479;-60
2023/11/20 12:08:01;;;;;;;16.90;10.67;;;11.30;99.90;;;;;;5031509;28;20475;-59
2023/11/20 12:10:43;;;;;;;16.47;11.83;;;11.30;99.90;;;;;;5025647;28;20455;-59
2023/11/20 12:13:15;;;;;;;15.57;11.37;;;11.30;99.90;;;;;;5026864;28;20484;-59
2023/11/20 12:15:45;;;;;;;15.13;10.27;;;11.20;99.90;;;;;;5023395;28;20885;-59
2023/11/20 12:18:16;;;;;;;13.80;10.30;;;11.20;99.90;;;;;;5026679;28;20553;-60
2023/11/20 12:21:07;;;;;;;16.20;10.90;;;11.20;99.90;;;;;;5021266;28;20499;-59
2023/11/20 12:23:36;;;;;;;17.77;11.30;;;11.30;99.90;;;;;;5017984;28;21073;-59
2023/11/20 12:26:06;;;;;;;17.37;11.87;;;11.30;99.90;;;;;;5026796;28;20550;-60
2023/11/20 12:28:36;;;;;;;14.60;11.63;;;11.30;99.90;;;;;;5027641;28;20560;-59
2023/11/20 12:31:06;;;;;;;17.27;12.53;;;11.30;99.90;;;;;;5028019;28;20470;-60
2023/11/20 12:33:38;;;;;;;17.07;12.03;;;11.30;99.90;;;;;;5023959;28;20483;-59
2023/11/20 12:36:08;;;;;;;17.23;12.90;;;11.30;99.90;;;;;;5028338;28;20700;-60
2023/11/20 12:38:38;;;;;;;19.20;12.53;;;11.30;99.90;;;;;;5023975;28;20964;-60
2023/11/20 12:41:09;;;;;;;17.10;14.70;;;11.30;99.90;;;;;;5027196;28;20497;-59
2023/11/20 12:43:37;;;;;;;17.87;13.63;;;11.30;99.90;;;;;;5022773;28;20495;-59
2023/11/20 12:46:06;;;;;;;15.77;11.90;;;11.20;99.90;;;;;;5014003;28;20565;-60
2023/11/20 12:48:39;;;;;;;13.63;11.80;;;11.20;99.90;;;;;;5020440;28;20471;-60